createdAt,value
2018-10-06T00:00:14.549Z,4.00
2018-10-06T00:01:14.446Z,4.00
2018-10-06T00:02:14.452Z,4.00
2018-10-06T00:03:14.412Z,4.00
2018-10-06T00:04:14.413Z,4.00
2018-10-06T00:05:14.398Z,4.00
2018-10-06T00:06:14.483Z,4.00
2018-10-06T00:07:14.381Z,4.00
2018-10-06T00:08:14.348Z,4.00
2018-10-06T00:09:14.400Z,4.00
2018-10-06T00:10:14.335Z,4.00
2018-10-06T00:11:14.336Z,4.00
2018-10-06T00:12:14.413Z,4.00
2018-10-06T00:13:14.312Z,4.00
2018-10-06T00:14:14.277Z,4.00
2018-10-06T00:15:14.279Z,4.00
2018-10-06T00:16:14.281Z,4.00
2018-10-06T00:17:14.245Z,4.00
2018-10-06T00:18:14.245Z,4.00
2018-10-06T00:19:14.231Z,4.00
2018-10-06T00:20:14.236Z,4.00
2018-10-06T00:21:14.253Z,4.00
2018-10-06T00:22:14.194Z,4.00
2018-10-06T00:23:14.201Z,4.00
2018-10-06T00:24:14.184Z,4.00
2018-10-06T00:25:14.151Z,4.00
2018-10-06T00:26:14.172Z,4.00
2018-10-06T00:27:14.140Z,4.00
2018-10-06T00:28:14.125Z,4.00
2018-10-06T00:29:14.118Z,4.00
2018-10-06T00:30:14.119Z,4.00
2018-10-06T00:31:14.074Z,4.00
2018-10-06T00:32:14.094Z,4.00
2018-10-06T00:33:14.077Z,4.00
2018-10-06T00:34:14.041Z,4.00
2018-10-06T00:35:14.075Z,4.00
2018-10-06T00:36:14.041Z,4.00
2018-10-06T00:37:14.030Z,4.00
2018-10-06T00:38:13.997Z,4.00
2018-10-06T00:39:14.012Z,4.00
2018-10-06T00:40:13.996Z,4.00
2018-10-06T00:41:13.967Z,4.00
2018-10-06T00:42:13.973Z,4.00
2018-10-06T00:43:13.952Z,4.00
2018-10-06T00:44:13.960Z,4.00
2018-10-06T00:45:13.928Z,4.00
2018-10-06T00:46:13.921Z,4.00
2018-10-06T00:47:13.962Z,4.00
2018-10-06T00:48:13.886Z,4.00
2018-10-06T00:49:13.872Z,4.00
2018-10-06T00:50:13.862Z,4.00
2018-10-06T00:51:13.872Z,4.00
2018-10-06T00:52:13.827Z,4.00
2018-10-06T00:53:13.812Z,4.00
2018-10-06T00:54:13.810Z,4.00
2018-10-06T00:55:13.801Z,4.00
2018-10-06T00:56:13.811Z,4.00
2018-10-06T00:57:13.797Z,4.00
2018-10-06T00:58:13.780Z,4.00
2018-10-06T00:59:13.751Z,4.00
2018-10-06T01:00:13.755Z,4.00
2018-10-06T01:01:13.741Z,4.00
2018-10-06T01:02:13.726Z,4.00
2018-10-06T01:03:13.710Z,4.00
2018-10-06T01:04:13.703Z,4.00
2018-10-06T01:05:13.703Z,4.00
2018-10-06T01:06:13.680Z,4.00
2018-10-06T01:07:13.686Z,4.00
2018-10-06T01:08:13.646Z,4.00
2018-10-06T01:09:13.646Z,4.00
2018-10-06T01:10:13.734Z,4.00
2018-10-06T01:11:13.667Z,4.00
2018-10-06T01:12:13.611Z,4.00
2018-10-06T01:13:13.603Z,4.00
2018-10-06T01:14:13.585Z,4.00
2018-10-06T01:15:13.584Z,4.00
2018-10-06T01:16:13.673Z,4.00
2018-10-06T01:17:13.567Z,4.00
2018-10-06T01:18:13.550Z,4.00
2018-10-06T01:19:13.529Z,4.00
2018-10-06T01:20:13.502Z,4.00
2018-10-06T01:21:13.504Z,4.00
2018-10-06T01:22:13.489Z,4.00
2018-10-06T01:23:13.462Z,4.00
2018-10-06T01:24:13.466Z,4.00
2018-10-06T01:25:13.439Z,4.00
2018-10-06T01:26:13.429Z,4.00
2018-10-06T01:27:13.578Z,4.00
2018-10-06T01:28:13.435Z,4.00
2018-10-06T01:29:13.450Z,4.00
2018-10-06T01:30:13.415Z,4.00
2018-10-06T01:31:13.385Z,4.00
2018-10-06T01:32:13.381Z,4.00
2018-10-06T01:33:13.372Z,4.00
2018-10-06T01:34:13.362Z,4.00
2018-10-06T01:35:13.346Z,4.00
2018-10-06T01:36:13.321Z,4.00
2018-10-06T01:37:13.321Z,4.00
2018-10-06T01:38:13.322Z,4.00
2018-10-06T01:39:13.275Z,4.00
2018-10-06T01:40:13.273Z,4.00
2018-10-06T01:41:13.272Z,4.00
2018-10-06T01:42:13.283Z,4.00
2018-10-06T01:43:13.261Z,4.00
2018-10-06T01:44:13.234Z,4.00
2018-10-06T01:45:13.225Z,4.00
2018-10-06T01:46:13.217Z,4.00
2018-10-06T01:47:13.197Z,4.00
2018-10-06T01:48:13.245Z,4.00
2018-10-06T01:49:13.186Z,4.00
2018-10-06T01:50:13.161Z,4.00
2018-10-06T01:51:13.222Z,4.00
2018-10-06T01:52:13.150Z,4.00
2018-10-06T01:53:13.274Z,4.00
2018-10-06T01:54:13.103Z,4.00
2018-10-06T01:55:13.127Z,4.00
2018-10-06T01:56:13.089Z,4.00
2018-10-06T01:57:13.121Z,4.00
2018-10-06T01:58:13.080Z,4.00
2018-10-06T01:59:13.050Z,4.00
2018-10-06T02:00:13.034Z,4.00
2018-10-06T02:01:13.045Z,4.00
2018-10-06T02:02:13.016Z,4.00
2018-10-06T02:03:13.009Z,4.00
2018-10-06T02:04:13.033Z,4.00
2018-10-06T02:05:12.975Z,4.00
2018-10-06T02:06:13.181Z,4.00
2018-10-06T02:07:12.984Z,4.00
2018-10-06T02:08:12.960Z,4.00
2018-10-06T02:09:12.934Z,4.00
2018-10-06T02:10:12.930Z,4.00
2018-10-06T02:11:12.909Z,4.00
2018-10-06T02:12:12.926Z,4.00
2018-10-06T02:13:12.937Z,8.00
2018-10-06T02:14:12.894Z,4.00
2018-10-06T02:15:12.884Z,4.00
2018-10-06T02:16:12.909Z,4.00
2018-10-06T02:17:12.858Z,4.00
2018-10-06T02:18:12.850Z,4.00
2018-10-06T02:19:12.917Z,4.00
2018-10-06T02:20:12.815Z,4.00
2018-10-06T02:21:12.781Z,4.00
2018-10-06T02:22:12.767Z,4.00
2018-10-06T02:23:12.770Z,4.00
2018-10-06T02:24:12.766Z,4.00
2018-10-06T02:25:12.749Z,4.00
2018-10-06T02:26:12.749Z,4.00
2018-10-06T02:27:12.724Z,4.00
2018-10-06T02:28:12.737Z,4.00
2018-10-06T02:29:12.772Z,4.00
2018-10-06T02:30:12.821Z,4.00
2018-10-06T02:31:12.698Z,4.00
2018-10-06T02:32:12.680Z,4.00
2018-10-06T02:33:12.685Z,4.00
2018-10-06T02:34:12.702Z,4.00
2018-10-06T02:35:12.671Z,4.00
2018-10-06T02:36:12.617Z,4.00
2018-10-06T02:37:12.623Z,4.00
2018-10-06T02:38:12.620Z,4.00
2018-10-06T02:39:12.598Z,4.00
2018-10-06T02:40:12.587Z,4.00
2018-10-06T02:41:12.614Z,4.00
2018-10-06T02:42:12.578Z,4.00
2018-10-06T02:43:12.558Z,4.00
2018-10-06T02:44:12.631Z,4.00
2018-10-06T02:45:12.721Z,4.00
2018-10-06T02:46:12.515Z,4.00
2018-10-06T02:47:12.507Z,4.00
2018-10-06T02:48:12.502Z,4.00
2018-10-06T02:49:12.474Z,4.00
2018-10-06T02:50:12.496Z,4.00
2018-10-06T02:51:12.509Z,4.00
2018-10-06T02:52:12.448Z,4.00
2018-10-06T02:53:12.419Z,4.00
2018-10-06T02:54:12.414Z,4.00
2018-10-06T02:55:12.418Z,4.00
2018-10-06T02:56:12.618Z,4.00
2018-10-06T02:57:12.395Z,4.00
2018-10-06T02:58:12.383Z,4.00
2018-10-06T02:59:12.366Z,4.00
2018-10-06T03:00:12.333Z,4.00
2018-10-06T03:01:12.347Z,4.00
2018-10-06T03:02:12.367Z,4.00
2018-10-06T03:03:12.304Z,4.00
2018-10-06T03:04:12.317Z,4.00
2018-10-06T03:05:12.283Z,4.00
2018-10-06T03:06:12.292Z,4.00
2018-10-06T03:07:12.322Z,4.00
2018-10-06T03:08:12.253Z,4.00
2018-10-06T03:09:12.242Z,4.00
2018-10-06T03:10:12.229Z,4.00
2018-10-06T03:11:12.225Z,4.00
2018-10-06T03:12:12.249Z,4.00
2018-10-06T03:13:12.192Z,4.00
2018-10-06T03:14:12.200Z,4.00
2018-10-06T03:15:12.187Z,4.00
2018-10-06T03:16:12.158Z,4.00
2018-10-06T03:17:12.139Z,4.00
2018-10-06T03:18:12.129Z,4.00
2018-10-06T03:19:12.171Z,4.00
2018-10-06T03:20:12.098Z,4.00
2018-10-06T03:21:12.212Z,4.00
2018-10-06T03:22:12.083Z,4.00
2018-10-06T03:23:12.086Z,4.00
2018-10-06T03:24:12.107Z,4.00
2018-10-06T03:25:12.057Z,4.00
2018-10-06T03:26:12.042Z,4.00
2018-10-06T03:27:12.148Z,4.00
2018-10-06T03:28:12.035Z,4.00
2018-10-06T03:29:12.007Z,4.00
2018-10-06T03:30:12.042Z,4.00
2018-10-06T03:31:11.971Z,4.00
2018-10-06T03:32:11.969Z,4.00
2018-10-06T03:33:11.973Z,4.00
2018-10-06T03:34:11.955Z,4.00
2018-10-06T03:35:11.931Z,4.00
2018-10-06T03:36:11.944Z,4.00
2018-10-06T03:37:12.031Z,4.00
2018-10-06T03:38:11.892Z,4.00
2018-10-06T03:39:11.884Z,4.00
2018-10-06T03:40:11.860Z,4.00
2018-10-06T03:41:11.865Z,4.00
2018-10-06T03:42:11.969Z,4.00
2018-10-06T03:43:11.842Z,4.00
2018-10-06T03:44:11.845Z,4.00
2018-10-06T03:45:11.828Z,4.00
2018-10-06T03:46:11.805Z,4.00
2018-10-06T03:47:11.806Z,4.00
2018-10-06T03:48:11.771Z,4.00
2018-10-06T03:49:11.795Z,4.00
2018-10-06T03:50:11.762Z,4.00
2018-10-06T03:51:11.742Z,4.00
2018-10-06T03:52:11.750Z,4.00
2018-10-06T03:53:11.851Z,4.00
2018-10-06T03:54:11.734Z,4.00
2018-10-06T03:55:11.714Z,4.00
2018-10-06T03:56:11.698Z,4.00
2018-10-06T03:57:11.687Z,4.00
2018-10-06T03:58:11.681Z,4.00
2018-10-06T03:59:11.664Z,4.00
2018-10-06T04:00:11.663Z,4.00
2018-10-06T04:01:11.643Z,4.00
2018-10-06T04:02:11.633Z,4.00
2018-10-06T04:03:11.751Z,4.00
2018-10-06T04:04:11.610Z,4.00
2018-10-06T04:05:11.593Z,4.00
2018-10-06T04:06:11.554Z,4.00
2018-10-06T04:07:11.554Z,4.00
2018-10-06T04:08:11.552Z,4.00
2018-10-06T04:09:11.557Z,4.00
2018-10-06T04:10:11.536Z,4.00
2018-10-06T04:11:11.514Z,4.00
2018-10-06T04:12:11.514Z,4.00
2018-10-06T04:13:11.507Z,4.00
2018-10-06T04:14:11.738Z,4.00
2018-10-06T04:15:11.488Z,4.00
2018-10-06T04:16:11.465Z,4.00
2018-10-06T04:17:11.460Z,4.00
2018-10-06T04:18:11.491Z,4.00
2018-10-06T04:19:11.438Z,4.00
2018-10-06T04:20:11.441Z,4.00
2018-10-06T04:21:11.443Z,4.00
2018-10-06T04:22:11.406Z,4.00
2018-10-06T04:23:11.393Z,4.00
2018-10-06T04:24:11.366Z,4.00
2018-10-06T04:25:11.359Z,4.00
2018-10-06T04:26:11.394Z,4.00
2018-10-06T04:27:11.334Z,4.00
2018-10-06T04:28:11.396Z,4.00
2018-10-06T04:29:11.360Z,4.00
2018-10-06T04:30:11.533Z,4.00
2018-10-06T04:31:11.289Z,4.00
2018-10-06T04:32:11.270Z,4.00
2018-10-06T04:33:11.268Z,4.00
2018-10-06T04:34:11.247Z,4.00
2018-10-06T04:35:11.242Z,4.00
2018-10-06T04:36:11.636Z,4.00
2018-10-06T04:37:11.270Z,4.00
2018-10-06T04:38:11.200Z,4.00
2018-10-06T04:39:11.195Z,4.00
2018-10-06T04:40:11.194Z,4.00
2018-10-06T04:41:11.202Z,4.00
2018-10-06T04:42:11.259Z,4.00
2018-10-06T04:43:11.157Z,4.00
2018-10-06T04:44:11.135Z,4.00
2018-10-06T04:45:11.133Z,4.00
2018-10-06T04:46:11.095Z,4.00
2018-10-06T04:47:11.347Z,4.00
2018-10-06T04:48:11.116Z,4.00
2018-10-06T04:49:11.078Z,4.00
2018-10-06T04:50:11.053Z,4.00
2018-10-06T04:51:11.056Z,4.00
2018-10-06T04:52:11.153Z,4.00
2018-10-06T04:53:11.091Z,4.00
2018-10-06T04:54:11.013Z,4.00
2018-10-06T04:55:11.065Z,4.00
2018-10-06T04:56:10.976Z,4.00
2018-10-06T04:57:11.214Z,4.00
2018-10-06T04:58:10.981Z,4.00
2018-10-06T04:59:10.975Z,4.00
2018-10-06T05:00:10.952Z,4.00
2018-10-06T05:01:10.917Z,4.00
2018-10-06T05:02:11.011Z,4.00
2018-10-06T05:03:10.947Z,4.00
2018-10-06T05:04:10.888Z,4.00
2018-10-06T05:05:10.885Z,4.00
2018-10-06T05:06:10.855Z,4.00
2018-10-06T05:07:10.867Z,4.00
2018-10-06T05:08:10.841Z,4.00
2018-10-06T05:09:10.841Z,4.00
2018-10-06T05:10:10.845Z,4.00
2018-10-06T05:11:10.801Z,4.00
2018-10-06T05:12:10.908Z,4.00
2018-10-06T05:13:10.799Z,4.00
2018-10-06T05:14:10.783Z,4.00
2018-10-06T05:15:10.773Z,4.00
2018-10-06T05:16:10.799Z,4.00
2018-10-06T05:17:10.754Z,4.00
2018-10-06T05:18:10.821Z,4.00
2018-10-06T05:19:10.773Z,4.00
2018-10-06T05:20:10.705Z,4.00
2018-10-06T05:21:10.722Z,4.00
2018-10-06T05:22:10.673Z,4.00
2018-10-06T05:23:10.716Z,4.00
2018-10-06T05:24:10.654Z,4.00
2018-10-06T05:25:10.705Z,4.00
2018-10-06T05:26:10.632Z,4.00
2018-10-06T05:27:10.618Z,4.00
2018-10-06T05:28:10.612Z,4.00
2018-10-06T05:29:10.599Z,4.00
2018-10-06T05:30:10.599Z,4.00
2018-10-06T05:31:10.588Z,4.00
2018-10-06T05:32:10.575Z,4.00
2018-10-06T05:33:10.558Z,4.00
2018-10-06T05:34:10.614Z,4.00
2018-10-06T05:35:10.567Z,4.00
2018-10-06T05:36:10.540Z,4.00
2018-10-06T05:37:10.514Z,4.00
2018-10-06T05:38:10.512Z,4.00
2018-10-06T05:39:10.490Z,4.00
2018-10-06T05:40:10.531Z,4.00
2018-10-06T05:41:10.459Z,4.00
2018-10-06T05:42:10.464Z,4.00
2018-10-06T05:43:10.454Z,4.00
2018-10-06T05:44:10.426Z,4.00
2018-10-06T05:45:10.422Z,4.00
2018-10-06T05:46:10.401Z,4.00
2018-10-06T05:47:10.389Z,4.00
2018-10-06T05:48:10.393Z,4.00
2018-10-06T05:49:10.355Z,4.00
2018-10-06T05:50:10.362Z,4.00
2018-10-06T05:51:10.379Z,4.00
2018-10-06T05:52:10.326Z,4.00
2018-10-06T05:53:10.346Z,4.00
2018-10-06T05:54:10.403Z,4.00
2018-10-06T05:55:10.323Z,4.00
2018-10-06T05:56:10.303Z,4.00
2018-10-06T05:57:10.292Z,4.00
2018-10-06T05:58:10.258Z,4.00
2018-10-06T05:59:10.297Z,4.00
2018-10-06T06:00:10.297Z,4.00
2018-10-06T06:01:10.222Z,4.00
2018-10-06T06:02:10.224Z,4.00
2018-10-06T06:03:10.225Z,4.00
2018-10-06T06:04:10.198Z,4.00
2018-10-06T06:05:10.174Z,4.00
2018-10-06T06:06:10.177Z,4.00
2018-10-06T06:07:10.164Z,4.00
2018-10-06T06:08:10.151Z,4.00
2018-10-06T06:09:10.187Z,4.00
2018-10-06T06:10:10.235Z,4.00
2018-10-06T06:11:10.105Z,4.00
2018-10-06T06:12:10.095Z,4.00
2018-10-06T06:13:10.092Z,4.00
2018-10-06T06:14:10.086Z,4.00
2018-10-06T06:15:10.062Z,4.00
2018-10-06T06:16:10.062Z,4.00
2018-10-06T06:17:10.040Z,4.00
2018-10-06T06:18:10.033Z,4.00
2018-10-06T06:19:10.012Z,4.00
2018-10-06T06:20:10.002Z,4.00
2018-10-06T06:21:10.037Z,4.00
2018-10-06T06:22:09.975Z,4.00
2018-10-06T06:23:09.985Z,4.00
2018-10-06T06:24:09.959Z,4.00
2018-10-06T06:25:09.951Z,4.00
2018-10-06T06:26:09.948Z,4.00
2018-10-06T06:27:09.933Z,4.00
2018-10-06T06:28:09.908Z,4.00
2018-10-06T06:29:09.897Z,4.00
2018-10-06T06:30:09.880Z,4.00
2018-10-06T06:31:09.913Z,4.00
2018-10-06T06:32:09.926Z,4.00
2018-10-06T06:33:09.874Z,4.00
2018-10-06T06:34:09.844Z,4.00
2018-10-06T06:35:09.848Z,4.00
2018-10-06T06:36:09.833Z,4.00
2018-10-06T06:37:09.809Z,4.00
2018-10-06T06:38:09.825Z,4.00
2018-10-06T06:39:09.790Z,4.00
2018-10-06T06:40:09.789Z,4.00
2018-10-06T06:41:09.768Z,4.00
2018-10-06T06:42:09.756Z,4.00
2018-10-06T06:43:09.784Z,4.00
2018-10-06T06:44:09.782Z,4.00
2018-10-06T06:45:09.720Z,4.00
2018-10-06T06:46:09.733Z,4.00
2018-10-06T06:47:09.702Z,4.00
2018-10-06T06:48:09.738Z,4.00
2018-10-06T06:49:09.659Z,4.00
2018-10-06T06:50:09.672Z,4.00
2018-10-06T06:51:09.636Z,4.00
2018-10-06T06:52:09.744Z,4.00
2018-10-06T06:53:09.617Z,4.00
2018-10-06T06:54:09.612Z,4.00
2018-10-06T06:55:09.612Z,4.00
2018-10-06T06:56:09.603Z,4.00
2018-10-06T06:57:09.593Z,4.00
2018-10-06T06:58:09.732Z,4.00
2018-10-06T06:59:09.542Z,4.00
2018-10-06T07:00:09.550Z,4.00
2018-10-06T07:01:09.543Z,4.00
2018-10-06T07:02:09.519Z,4.00
2018-10-06T07:03:09.522Z,4.00
2018-10-06T07:04:09.501Z,4.00
2018-10-06T07:05:09.493Z,4.00
2018-10-06T07:06:09.470Z,4.00
2018-10-06T07:07:09.454Z,4.00
2018-10-06T07:08:09.506Z,4.00
2018-10-06T07:09:09.698Z,4.00
2018-10-06T07:10:09.439Z,4.00
2018-10-06T07:11:09.410Z,4.00
2018-10-06T07:12:09.430Z,4.00
2018-10-06T07:13:09.404Z,4.00
2018-10-06T07:14:09.405Z,4.00
2018-10-06T07:15:09.377Z,4.00
2018-10-06T07:16:09.349Z,4.00
2018-10-06T07:17:09.353Z,4.00
2018-10-06T07:18:09.342Z,4.00
2018-10-06T07:19:09.308Z,4.00
2018-10-06T07:20:09.574Z,4.00
2018-10-06T07:21:09.291Z,4.00
2018-10-06T07:22:09.300Z,4.00
2018-10-06T07:23:09.268Z,4.00
2018-10-06T07:24:09.255Z,4.00
2018-10-06T07:25:09.350Z,4.00
2018-10-06T07:26:09.242Z,4.00
2018-10-06T07:27:09.247Z,4.00
2018-10-06T07:28:09.242Z,4.00
2018-10-06T07:29:09.221Z,4.00
2018-10-06T07:30:09.204Z,4.00
2018-10-06T07:31:09.194Z,4.00
2018-10-06T07:32:09.180Z,4.00
2018-10-06T07:33:09.211Z,4.00
2018-10-06T07:34:09.155Z,4.00
2018-10-06T07:35:09.142Z,8.00
2018-10-06T07:36:09.245Z,4.00
2018-10-06T07:37:09.121Z,4.00
2018-10-06T07:38:09.127Z,4.00
2018-10-06T07:39:09.121Z,4.00
2018-10-06T07:40:09.076Z,4.00
2018-10-06T07:41:09.076Z,4.00
2018-10-06T07:42:09.063Z,4.00
2018-10-06T07:43:09.071Z,4.00
2018-10-06T07:44:09.050Z,4.00
2018-10-06T07:45:09.011Z,4.00
2018-10-06T07:46:09.059Z,4.00
2018-10-06T07:47:09.004Z,4.00
2018-10-06T07:48:08.988Z,4.00
2018-10-06T07:49:08.963Z,4.00
2018-10-06T07:50:08.978Z,4.00
2018-10-06T07:51:08.944Z,4.00
2018-10-06T07:52:09.194Z,4.00
2018-10-06T07:53:08.964Z,4.00
2018-10-06T07:54:08.910Z,4.00
2018-10-06T07:55:08.911Z,4.00
2018-10-06T07:56:08.917Z,4.00
2018-10-06T07:57:08.940Z,4.00
2018-10-06T07:58:08.979Z,4.00
2018-10-06T07:59:08.901Z,4.00
2018-10-06T08:00:08.841Z,4.00
2018-10-06T08:01:08.905Z,4.00
2018-10-06T08:02:08.810Z,4.00
2018-10-06T08:03:08.808Z,4.00
2018-10-06T08:04:08.818Z,4.00
2018-10-06T08:05:08.834Z,4.00
2018-10-06T08:06:08.788Z,4.00
2018-10-06T08:07:08.776Z,4.00
2018-10-06T08:08:08.869Z,4.00
2018-10-06T08:09:08.760Z,4.00
2018-10-06T08:10:08.778Z,4.00
2018-10-06T08:11:08.730Z,4.00
2018-10-06T08:12:08.701Z,4.00
2018-10-06T08:13:08.691Z,4.00
2018-10-06T08:14:08.791Z,4.00
2018-10-06T08:15:08.713Z,4.00
2018-10-06T08:16:08.700Z,4.00
2018-10-06T08:17:08.647Z,4.00
2018-10-06T08:18:08.663Z,4.00
2018-10-06T08:19:08.646Z,4.00
2018-10-06T08:20:08.663Z,8.00
2018-10-06T08:21:08.631Z,8.00
2018-10-06T08:22:08.594Z,8.00
2018-10-06T08:23:08.596Z,8.00
2018-10-06T08:24:08.581Z,8.00
2018-10-06T08:25:08.564Z,8.00
2018-10-06T08:26:08.560Z,8.00
2018-10-06T08:27:08.564Z,8.00
2018-10-06T08:28:08.526Z,8.00
2018-10-06T08:29:08.514Z,8.00
2018-10-06T08:30:08.596Z,8.00
2018-10-06T08:31:08.505Z,8.00
2018-10-06T08:32:08.486Z,8.00
2018-10-06T08:33:08.468Z,8.00
2018-10-06T08:34:08.444Z,8.00
2018-10-06T08:35:08.456Z,8.00
2018-10-06T08:36:08.477Z,8.00
2018-10-06T08:37:08.433Z,8.00
2018-10-06T08:38:08.420Z,8.00
2018-10-06T08:39:08.416Z,12.00
2018-10-06T08:40:08.387Z,12.00
2018-10-06T08:41:08.416Z,8.00
2018-10-06T08:42:08.393Z,8.00
2018-10-06T08:43:08.348Z,8.00
2018-10-06T08:44:08.340Z,8.00
2018-10-06T08:45:08.336Z,12.00
2018-10-06T08:46:08.668Z,12.00
2018-10-06T08:47:08.308Z,12.00
2018-10-06T08:48:08.299Z,12.00
2018-10-06T08:49:08.290Z,12.00
2018-10-06T08:50:08.273Z,12.00
2018-10-06T08:51:08.279Z,16.00
2018-10-06T08:52:08.248Z,12.00
2018-10-06T08:53:08.242Z,16.00
2018-10-06T08:54:08.252Z,16.00
2018-10-06T08:55:08.229Z,16.00
2018-10-06T08:56:08.315Z,16.00
2018-10-06T08:57:08.184Z,16.00
2018-10-06T08:58:08.279Z,20.00
2018-10-06T08:59:08.221Z,20.00
2018-10-06T09:00:08.164Z,20.00
2018-10-06T09:01:08.155Z,20.00
2018-10-06T09:02:08.141Z,16.00
2018-10-06T09:03:08.136Z,12.00
2018-10-06T09:04:08.150Z,16.00
2018-10-06T09:05:08.115Z,16.00
2018-10-06T09:06:08.142Z,20.00
2018-10-06T09:07:08.101Z,20.00
2018-10-06T09:08:08.074Z,20.00
2018-10-06T09:09:08.048Z,20.00
2018-10-06T09:10:08.094Z,20.00
2018-10-06T09:11:08.063Z,24.00
2018-10-06T09:12:08.023Z,24.00
2018-10-06T09:13:08.011Z,28.00
2018-10-06T09:14:08.013Z,28.00
2018-10-06T09:15:08.002Z,32.00
2018-10-06T09:16:07.969Z,32.00
2018-10-06T09:17:07.975Z,32.00
2018-10-06T09:18:08.009Z,32.00
2018-10-06T09:19:07.956Z,32.00
2018-10-06T09:20:08.124Z,28.00
2018-10-06T09:21:07.990Z,32.00
2018-10-06T09:22:07.913Z,28.00
2018-10-06T09:23:07.920Z,32.00
2018-10-06T09:24:07.911Z,32.00
2018-10-06T09:25:07.923Z,32.00
2018-10-06T09:26:07.912Z,36.00
2018-10-06T09:27:07.859Z,36.00
2018-10-06T09:28:07.859Z,40.00
2018-10-06T09:29:07.828Z,44.00
2018-10-06T09:30:07.819Z,44.00
2018-10-06T09:31:07.816Z,44.00
2018-10-06T09:32:07.850Z,40.00
2018-10-06T09:33:07.802Z,44.00
2018-10-06T09:34:07.784Z,44.00
2018-10-06T09:35:07.761Z,48.00
2018-10-06T09:36:07.765Z,48.00
2018-10-06T09:37:07.851Z,48.00
2018-10-06T09:38:07.737Z,52.00
2018-10-06T09:39:07.739Z,52.00
2018-10-06T09:40:07.724Z,52.00
2018-10-06T09:41:07.699Z,48.00
2018-10-06T09:42:07.836Z,48.00
2018-10-06T09:43:07.674Z,52.00
2018-10-06T09:44:07.672Z,52.00
2018-10-06T09:45:07.670Z,56.00
2018-10-06T09:46:07.626Z,52.00
2018-10-06T09:47:07.688Z,52.00
2018-10-06T09:48:07.647Z,48.00
2018-10-06T09:49:07.686Z,48.00
2018-10-06T09:50:07.601Z,48.00
2018-10-06T09:51:07.595Z,48.00
2018-10-06T09:52:07.571Z,52.00
2018-10-06T09:53:07.683Z,52.00
2018-10-06T09:54:07.548Z,52.00
2018-10-06T09:55:07.558Z,56.00
2018-10-06T09:56:07.533Z,64.00
2018-10-06T09:57:07.535Z,68.00
2018-10-06T09:58:07.526Z,72.00
2018-10-06T09:59:07.507Z,64.00
2018-10-06T10:00:07.489Z,56.00
2018-10-06T10:01:07.484Z,48.00
2018-10-06T10:02:07.515Z,44.00
2018-10-06T10:03:07.449Z,44.00
2018-10-06T10:04:07.434Z,48.00
2018-10-06T10:05:07.486Z,64.00
2018-10-06T10:06:07.410Z,76.00
2018-10-06T10:07:07.478Z,84.00
2018-10-06T10:08:07.408Z,92.00
2018-10-06T10:09:07.492Z,100.00
2018-10-06T10:10:07.371Z,108.00
2018-10-06T10:11:07.443Z,116.00
2018-10-06T10:12:07.369Z,116.00
2018-10-06T10:13:07.344Z,112.00
2018-10-06T10:14:07.339Z,100.00
2018-10-06T10:15:07.329Z,96.00
2018-10-06T10:16:07.335Z,96.00
2018-10-06T10:17:07.342Z,100.00
2018-10-06T10:18:07.399Z,116.00
2018-10-06T10:19:07.290Z,148.00
2018-10-06T10:20:07.260Z,164.00
2018-10-06T10:21:07.269Z,168.00
2018-10-06T10:22:07.392Z,152.00
2018-10-06T10:23:07.288Z,124.00
2018-10-06T10:24:07.278Z,116.00
2018-10-06T10:25:07.204Z,124.00
2018-10-06T10:26:07.212Z,140.00
2018-10-06T10:27:07.196Z,176.00
2018-10-06T10:28:07.193Z,216.00
2018-10-06T10:29:07.182Z,260.00
2018-10-06T10:30:07.164Z,284.00
2018-10-06T10:31:07.157Z,296.00
2018-10-06T10:32:07.150Z,280.00
2018-10-06T10:33:07.127Z,268.00
2018-10-06T10:34:07.357Z,264.00
2018-10-06T10:35:07.100Z,272.00
2018-10-06T10:36:07.097Z,268.00
2018-10-06T10:37:07.094Z,252.00
2018-10-06T10:38:07.076Z,244.00
2018-10-06T10:39:07.140Z,232.00
2018-10-06T10:40:07.067Z,212.00
2018-10-06T10:41:07.043Z,204.00
2018-10-06T10:42:07.018Z,212.00
2018-10-06T10:43:07.028Z,232.00
2018-10-06T10:44:07.159Z,268.00
2018-10-06T10:45:07.030Z,288.00
2018-10-06T10:46:06.996Z,276.00
2018-10-06T10:47:07.022Z,240.00
2018-10-06T10:48:07.018Z,204.00
2018-10-06T10:49:06.950Z,236.00
2018-10-06T10:50:06.943Z,284.00
2018-10-06T10:51:06.908Z,288.00
2018-10-06T10:52:06.904Z,272.00
2018-10-06T10:53:06.901Z,268.00
2018-10-06T10:54:06.909Z,264.00
2018-10-06T10:55:06.876Z,256.00
2018-10-06T10:56:06.855Z,244.00
2018-10-06T10:57:06.877Z,248.00
2018-10-06T10:58:06.866Z,260.00
2018-10-06T10:59:06.841Z,264.00
2018-10-06T11:00:07.013Z,256.00
2018-10-06T11:01:06.883Z,244.00
2018-10-06T11:02:06.825Z,260.00
2018-10-06T11:03:06.846Z,316.00
2018-10-06T11:04:06.797Z,376.00
2018-10-06T11:05:06.788Z,432.00
2018-10-06T11:06:06.779Z,420.00
2018-10-06T11:07:06.762Z,372.00
2018-10-06T11:08:06.794Z,332.00
2018-10-06T11:09:06.744Z,312.00
2018-10-06T11:10:06.747Z,316.00
2018-10-06T11:11:06.753Z,340.00
2018-10-06T11:12:06.708Z,364.00
2018-10-06T11:13:06.668Z,364.00
2018-10-06T11:14:06.685Z,360.00
2018-10-06T11:15:06.649Z,388.00
2018-10-06T11:16:06.698Z,420.00
2018-10-06T11:17:06.681Z,424.00
2018-10-06T11:18:06.624Z,400.00
2018-10-06T11:19:06.634Z,368.00
2018-10-06T11:20:06.624Z,344.00
2018-10-06T11:21:06.613Z,328.00
2018-10-06T11:22:06.580Z,332.00
2018-10-06T11:23:06.588Z,340.00
2018-10-06T11:24:06.581Z,348.00
2018-10-06T11:25:06.588Z,352.00
2018-10-06T11:26:06.593Z,348.00
2018-10-06T11:27:06.564Z,340.00
2018-10-06T11:28:06.553Z,336.00
2018-10-06T11:29:06.538Z,332.00
2018-10-06T11:30:06.510Z,332.00
2018-10-06T11:31:06.496Z,332.00
2018-10-06T11:32:06.542Z,352.00
2018-10-06T11:33:06.471Z,380.00
2018-10-06T11:34:06.491Z,384.00
2018-10-06T11:35:06.513Z,388.00
2018-10-06T11:36:06.456Z,412.00
2018-10-06T11:37:06.442Z,468.00
2018-10-06T11:38:06.420Z,524.00
2018-10-06T11:39:06.431Z,588.00
2018-10-06T11:40:06.428Z,624.00
2018-10-06T11:41:06.405Z,616.00
2018-10-06T11:42:06.408Z,672.00
2018-10-06T11:43:06.376Z,684.00
2018-10-06T11:44:06.369Z,684.00
2018-10-06T11:45:06.397Z,708.00
2018-10-06T11:46:06.353Z,700.00
2018-10-06T11:47:06.419Z,644.00
2018-10-06T11:48:06.338Z,596.00
2018-10-06T11:49:06.335Z,568.00
2018-10-06T11:50:06.349Z,560.00
2018-10-06T11:51:06.307Z,568.00
2018-10-06T11:52:06.290Z,584.00
2018-10-06T11:53:06.286Z,604.00
2018-10-06T11:54:06.263Z,636.00
2018-10-06T11:55:06.268Z,660.00
2018-10-06T11:56:06.249Z,656.00
2018-10-06T11:57:06.356Z,652.00
2018-10-06T11:58:06.224Z,672.00
2018-10-06T11:59:06.223Z,700.00
2018-10-06T12:00:06.296Z,708.00
2018-10-06T12:01:06.215Z,708.00
2018-10-06T12:02:06.201Z,628.00
2018-10-06T12:03:06.162Z,592.00
2018-10-06T12:04:06.161Z,572.00
2018-10-06T12:05:06.151Z,560.00
2018-10-06T12:06:06.146Z,552.00
2018-10-06T12:07:06.139Z,548.00
2018-10-06T12:08:06.127Z,544.00
2018-10-06T12:09:06.124Z,540.00
2018-10-06T12:10:06.092Z,524.00
2018-10-06T12:11:06.084Z,508.00
2018-10-06T12:12:06.076Z,516.00
2018-10-06T12:13:06.079Z,544.00
2018-10-06T12:14:06.077Z,576.00
2018-10-06T12:15:06.041Z,592.00
2018-10-06T12:16:06.088Z,600.00
2018-10-06T12:17:06.041Z,620.00
2018-10-06T12:18:06.045Z,616.00
2018-10-06T12:19:06.060Z,588.00
2018-10-06T12:20:06.014Z,568.00
2018-10-06T12:21:05.999Z,572.00
2018-10-06T12:22:05.992Z,540.00
2018-10-06T12:23:05.971Z,548.00
2018-10-06T12:24:05.971Z,512.00
2018-10-06T12:25:05.951Z,504.00
2018-10-06T12:26:05.972Z,464.00
2018-10-06T12:27:05.980Z,448.00
2018-10-06T12:28:05.906Z,436.00
2018-10-06T12:29:05.915Z,460.00
2018-10-06T12:30:05.914Z,452.00
2018-10-06T12:31:05.888Z,452.00
2018-10-06T12:32:05.860Z,464.00
2018-10-06T12:33:05.888Z,500.00
2018-10-06T12:34:05.863Z,528.00
2018-10-06T12:35:05.883Z,564.00
2018-10-06T12:36:05.828Z,536.00
2018-10-06T12:37:05.819Z,524.00
2018-10-06T12:38:05.838Z,480.00
2018-10-06T12:39:05.857Z,464.00
2018-10-06T12:40:05.789Z,456.00
2018-10-06T12:41:05.803Z,444.00
2018-10-06T12:42:05.798Z,452.00
2018-10-06T12:43:05.767Z,440.00
2018-10-06T12:44:05.755Z,472.00
2018-10-06T12:45:05.759Z,468.00
2018-10-06T12:46:05.768Z,468.00
2018-10-06T12:47:05.782Z,448.00
2018-10-06T12:48:05.739Z,436.00
2018-10-06T12:49:05.707Z,400.00
2018-10-06T12:50:05.921Z,392.00
2018-10-06T12:51:05.744Z,404.00
2018-10-06T12:52:05.671Z,420.00
2018-10-06T12:53:05.687Z,400.00
2018-10-06T12:54:05.683Z,380.00
2018-10-06T12:55:05.641Z,348.00
2018-10-06T12:56:05.668Z,332.00
2018-10-06T12:57:05.657Z,384.00
2018-10-06T12:58:05.654Z,512.00
2018-10-06T12:59:05.605Z,652.00
2018-10-06T13:00:05.669Z,700.00
2018-10-06T13:01:05.597Z,700.00
2018-10-06T13:02:05.574Z,668.00
2018-10-06T13:03:05.579Z,720.00